createdAt,value
2018-11-29T00:00:12.724Z,-0.21
2018-11-29T00:01:22.902Z,-0.1
2018-11-29T00:02:33.228Z,-0.07
2018-11-29T00:03:43.402Z,-0.09
2018-11-29T00:04:53.573Z,-0.1
2018-11-29T00:06:03.752Z,-0.03
2018-11-29T00:07:13.926Z,-0.03
2018-11-29T00:08:24.249Z,-0.05
2018-11-29T00:09:34.423Z,-0.06
2018-11-29T00:10:44.332Z,-0.06
2018-11-29T00:11:54.506Z,-0.06
2018-11-29T00:13:04.716Z,-0.06
2018-11-29T00:14:15.039Z,-0.03
2018-11-29T00:15:25.214Z,-0.1
2018-11-29T00:16:35.302Z,-0.06
2018-11-29T00:17:45.388Z,-0.03
2018-11-29T00:18:55.445Z,0.02
2018-11-29T00:20:05.347Z,-0.06
2018-11-29T00:21:15.403Z,-0.06
2018-11-29T00:22:25.494Z,-0.06
2018-11-29T00:23:35.541Z,0.05
2018-11-29T00:24:45.603Z,0.02
2018-11-29T00:25:55.805Z,0.05
2018-11-29T00:27:05.858Z,0.08
2018-11-29T00:28:15.920Z,0.05
2018-11-29T00:29:25.974Z,0.09
2018-11-29T00:30:36.031Z,0
2018-11-29T00:31:46.180Z,0.08
2018-11-29T00:32:56.227Z,-0.06
2018-11-29T00:34:06.284Z,0.11
2018-11-29T00:35:16.334Z,0.09
2018-11-29T00:36:26.383Z,0.08
2018-11-29T00:37:36.479Z,0
2018-11-29T00:38:46.534Z,-0.03
2018-11-29T00:39:56.581Z,0.06
2018-11-29T00:41:06.643Z,0.06
2018-11-29T00:42:16.701Z,0.11
2018-11-29T00:43:26.804Z,0.09
2018-11-29T00:44:36.853Z,-0.09
2018-11-29T00:45:46.908Z,-0.02
2018-11-29T00:46:56.962Z,0.05
2018-11-29T00:48:07.015Z,-0.02
2018-11-29T00:49:17.215Z,-0.07
2018-11-29T00:50:27.278Z,-0.09
2018-11-29T00:51:37.073Z,-0.1
2018-11-29T00:52:47.126Z,-0.05
2018-11-29T00:53:56.918Z,-0.09
2018-11-29T00:55:07.137Z,-0.05
2018-11-29T00:56:17.195Z,-0.06
2018-11-29T00:57:27.250Z,-0.02
2018-11-29T00:58:37.312Z,-0.07
2018-11-29T00:59:47.362Z,-0.03
2018-11-29T01:00:57.509Z,-0.03
2018-11-29T01:02:07.563Z,0.06
2018-11-29T01:03:17.618Z,0.05
2018-11-29T01:04:27.665Z,0.06
2018-11-29T01:05:37.716Z,-0.06
2018-11-29T01:06:47.874Z,-0.02
2018-11-29T01:07:57.927Z,0.01
2018-11-29T01:09:07.973Z,0.08
2018-11-29T01:10:18.025Z,0
2018-11-29T01:11:28.116Z,0.11
2018-11-29T01:12:38.266Z,0.05
2018-11-29T01:13:48.319Z,0.02
2018-11-29T01:14:58.367Z,0.08
2018-11-29T01:16:08.421Z,0.09
2018-11-29T01:17:18.472Z,0.11
2018-11-29T01:18:28.618Z,0
2018-11-29T01:19:38.676Z,0.12
2018-11-29T01:20:48.738Z,0.12
2018-11-29T01:21:58.785Z,0.01
2018-11-29T01:23:08.835Z,0.11
2018-11-29T01:24:18.992Z,-0.05
2018-11-29T01:25:29.051Z,0.06
2018-11-29T01:26:39.113Z,0.06
2018-11-29T01:27:49.163Z,0.11
2018-11-29T01:28:59.211Z,0.02
2018-11-29T01:30:09.109Z,-0.05
2018-11-29T01:31:19.179Z,0.09
2018-11-29T01:32:29.233Z,-0.02
2018-11-29T01:33:39.283Z,0.06
2018-11-29T01:34:49.335Z,0.06
2018-11-29T01:35:59.485Z,0.06
2018-11-29T01:37:09.539Z,0.12
2018-11-29T01:38:19.596Z,0.01
2018-11-29T01:39:29.655Z,0.09
2018-11-29T01:40:39.712Z,0.02
2018-11-29T01:41:49.881Z,0.01
2018-11-29T01:42:59.928Z,0.06
2018-11-29T01:44:09.982Z,-0.02
2018-11-29T01:45:20.037Z,0.09
2018-11-29T01:46:30.095Z,0.11
2018-11-29T01:47:40.246Z,0.02
2018-11-29T01:48:50.296Z,0.18
2018-11-29T01:50:00.346Z,0.16
2018-11-29T01:51:10.400Z,0.06
2018-11-29T01:52:20.460Z,0.19
2018-11-29T01:53:30.580Z,0.11
2018-11-29T01:54:40.649Z,0.23
2018-11-29T01:55:50.702Z,0.15
2018-11-29T01:57:00.756Z,0.09
2018-11-29T01:58:10.802Z,0.15
2018-11-29T01:59:20.912Z,0.16
2018-11-29T02:00:30.968Z,0.24
2018-11-29T02:01:41.021Z,0.23
2018-11-29T02:02:51.082Z,0.16
2018-11-29T02:04:01.146Z,0.27
2018-11-29T02:05:11.245Z,0.27
2018-11-29T02:06:21.304Z,0.34
2018-11-29T02:07:31.352Z,0.36
2018-11-29T02:08:41.399Z,0.42
2018-11-29T02:09:51.446Z,0.42
2018-11-29T02:11:01.595Z,0.4
2018-11-29T02:12:11.647Z,0.42
2018-11-29T02:13:21.707Z,0.45
2018-11-29T02:14:31.493Z,0.47
2018-11-29T02:15:41.548Z,0.37
2018-11-29T02:16:51.701Z,0.45
2018-11-29T02:18:01.753Z,0.3
2018-11-29T02:19:11.806Z,0.45
2018-11-29T02:20:21.860Z,0.45
2018-11-29T02:21:31.908Z,0.45
2018-11-29T02:22:42.066Z,0.42
2018-11-29T02:23:52.134Z,0.49
2018-11-29T02:25:02.184Z,0.49
2018-11-29T02:26:12.233Z,0.42
2018-11-29T02:27:22.284Z,0.49
2018-11-29T02:28:32.436Z,0.48
2018-11-29T02:29:42.490Z,0.47
2018-11-29T02:30:52.285Z,0.42
2018-11-29T02:32:02.343Z,0.44
2018-11-29T02:33:12.398Z,0.47
2018-11-29T02:34:22.613Z,0.49
2018-11-29T02:35:32.697Z,0.44
2018-11-29T02:36:42.751Z,0.47
2018-11-29T02:37:52.802Z,0.34
2018-11-29T02:39:02.860Z,0.39
2018-11-29T02:40:13.060Z,0.44
2018-11-29T02:41:23.119Z,0.47
2018-11-29T02:42:33.174Z,0.45
2018-11-29T02:43:43.225Z,0.37
2018-11-29T02:44:53.291Z,0.44
2018-11-29T02:46:03.150Z,0.47
2018-11-29T02:47:12.965Z,0.45
2018-11-29T02:48:23.018Z,0.4
2018-11-29T02:49:33.070Z,0.37
2018-11-29T02:50:43.136Z,0.44
2018-11-29T02:51:53.237Z,0.48
2018-11-29T02:53:03.294Z,0.55
2018-11-29T02:54:13.364Z,0.55
2018-11-29T02:55:23.426Z,0.52
2018-11-29T02:56:33.489Z,0.48
2018-11-29T02:57:43.687Z,0.55
2018-11-29T02:58:53.749Z,0.61
2018-11-29T03:00:03.807Z,0.45
2018-11-29T03:01:13.866Z,0.52
2018-11-29T03:02:23.943Z,0.66
2018-11-29T03:03:34.094Z,0.52
2018-11-29T03:04:44.148Z,0.63
2018-11-29T03:05:54.196Z,0.63
2018-11-29T03:07:04.260Z,0.56
2018-11-29T03:08:14.306Z,0.55
2018-11-29T03:09:24.460Z,0.63
2018-11-29T03:10:34.271Z,0.52
2018-11-29T03:11:44.330Z,0.49
2018-11-29T03:12:54.390Z,0.63
2018-11-29T03:14:04.459Z,0.52
2018-11-29T03:15:14.570Z,0.56
2018-11-29T03:16:24.630Z,0.56
2018-11-29T03:17:34.686Z,0.56
2018-11-29T03:18:44.482Z,0.59
2018-11-29T03:19:54.534Z,0.64
2018-11-29T03:21:04.688Z,0.56
2018-11-29T03:22:14.743Z,0.64
2018-11-29T03:23:24.799Z,0.64
2018-11-29T03:24:34.860Z,0.63
2018-11-29T03:25:44.920Z,0.59
2018-11-29T03:26:55.027Z,0.67
2018-11-29T03:28:05.083Z,0.56
2018-11-29T03:29:15.158Z,0.55
2018-11-29T03:30:25.241Z,0.48
2018-11-29T03:31:35.310Z,0.56
2018-11-29T03:32:45.520Z,0.48
2018-11-29T03:33:55.606Z,0.42
2018-11-29T03:35:05.674Z,0.48
2018-11-29T03:36:15.743Z,0.51
2018-11-29T03:37:25.797Z,0.52
2018-11-29T03:38:35.906Z,0.39
2018-11-29T03:39:45.975Z,0.45
2018-11-29T03:40:56.038Z,0.51
2018-11-29T03:42:06.095Z,0.48
2018-11-29T03:43:16.149Z,0.42
2018-11-29T03:44:26.302Z,0.48
2018-11-29T03:45:36.353Z,0.45
2018-11-29T03:46:46.413Z,0.44
2018-11-29T03:47:56.463Z,0.44
2018-11-29T03:49:06.524Z,0.47
2018-11-29T03:50:16.686Z,0.45
2018-11-29T03:51:26.750Z,0.36
2018-11-29T03:52:36.809Z,0.45
2018-11-29T03:53:46.873Z,0.49
2018-11-29T03:54:56.927Z,0.55
2018-11-29T03:56:06.850Z,0.55
2018-11-29T03:57:16.905Z,0.37
2018-11-29T03:58:26.956Z,0.49
2018-11-29T03:59:37.015Z,0.48
2018-11-29T04:00:47.067Z,0.48
2018-11-29T04:01:57.226Z,0.52
2018-11-29T04:03:07.306Z,0.51
2018-11-29T04:04:17.419Z,0.55
2018-11-29T04:05:27.494Z,0.48
2018-11-29T04:06:37.551Z,0.49
2018-11-29T04:07:47.714Z,0.47
2018-11-29T04:08:57.766Z,0.45
2018-11-29T04:10:07.819Z,0.51
2018-11-29T04:11:17.871Z,0.49
2018-11-29T04:12:27.944Z,0.48
2018-11-29T04:13:37.841Z,0.44
2018-11-29T04:14:47.906Z,0.48
2018-11-29T04:15:57.956Z,0.47
2018-11-29T04:17:08.010Z,0.49
2018-11-29T04:18:18.117Z,0.64
2018-11-29T04:19:28.272Z,0.51
2018-11-29T04:20:38.330Z,0.61
2018-11-29T04:21:48.380Z,0.51
2018-11-29T04:22:58.439Z,0.63
2018-11-29T04:24:08.494Z,0.66
2018-11-29T04:25:18.696Z,0.61
2018-11-29T04:26:28.782Z,0.59
2018-11-29T04:27:38.834Z,0.56
2018-11-29T04:28:48.889Z,0.63
2018-11-29T04:29:58.935Z,0.59
2018-11-29T04:31:09.090Z,0.67
2018-11-29T04:32:19.154Z,0.63
2018-11-29T04:33:29.205Z,0.7
2018-11-29T04:34:39.255Z,0.67
2018-11-29T04:35:49.312Z,0.77
2018-11-29T04:36:59.437Z,0.77
2018-11-29T04:38:09.255Z,0.67
2018-11-29T04:39:19.322Z,0.71
2018-11-29T04:40:29.379Z,0.68
2018-11-29T04:41:39.430Z,0.71
2018-11-29T04:42:49.656Z,0.76
2018-11-29T04:44:00.348Z,0.67
2018-11-29T04:45:10.410Z,0.73
2018-11-29T04:46:20.467Z,0.7
2018-11-29T04:47:30.522Z,0.7
2018-11-29T04:48:40.631Z,0.73
2018-11-29T04:49:50.689Z,0.73
2018-11-29T04:51:00.742Z,0.71
2018-11-29T04:52:10.812Z,0.73
2018-11-29T04:53:20.864Z,0.73
2018-11-29T04:54:31.083Z,0.82
2018-11-29T04:55:41.161Z,0.7
2018-11-29T04:56:51.219Z,0.74
2018-11-29T04:58:01.271Z,0.7
2018-11-29T04:59:11.325Z,0.71
2018-11-29T05:00:21.489Z,0.68
2018-11-29T05:01:31.548Z,0.74
2018-11-29T05:02:41.621Z,0.74
2018-11-29T05:03:51.682Z,0.67
2018-11-29T05:05:01.751Z,0.71
2018-11-29T05:06:11.866Z,0.71
2018-11-29T05:07:21.922Z,0.73
2018-11-29T05:08:31.986Z,0.67
2018-11-29T05:09:42.041Z,0.74
2018-11-29T05:10:52.095Z,0.68
2018-11-29T05:12:02.248Z,0.74
2018-11-29T05:13:12.299Z,0.73
2018-11-29T05:14:22.357Z,0.68
2018-11-29T05:15:32.413Z,0.71
2018-11-29T05:16:42.467Z,0.7
2018-11-29T05:17:52.632Z,0.66
2018-11-29T05:19:02.698Z,0.7
2018-11-29T05:20:12.511Z,0.64
2018-11-29T05:21:22.563Z,0.59
2018-11-29T05:22:32.628Z,0.58
2018-11-29T05:23:42.783Z,0.63
2018-11-29T05:24:52.840Z,0.66
2018-11-29T05:26:02.894Z,0.74
2018-11-29T05:27:12.991Z,0.64
2018-11-29T05:28:23.052Z,0.68
2018-11-29T05:29:33.207Z,0.68
2018-11-29T05:30:43.256Z,0.7
2018-11-29T05:31:53.306Z,0.67
2018-11-29T05:33:03.360Z,0.67
2018-11-29T05:34:13.416Z,0.68
2018-11-29T05:35:23.567Z,0.7
2018-11-29T05:36:33.367Z,0.66
2018-11-29T05:37:43.419Z,0.67
2018-11-29T05:38:53.471Z,0.55
2018-11-29T05:40:03.525Z,0.61
2018-11-29T05:41:13.726Z,0.63
2018-11-29T05:42:23.779Z,0.63
2018-11-29T05:43:33.829Z,0.55
2018-11-29T05:44:43.882Z,0.66
2018-11-29T05:45:53.934Z,0.74
2018-11-29T05:47:04.128Z,0.63
2018-11-29T05:48:14.181Z,0.66
2018-11-29T05:49:24.231Z,0.68
2018-11-29T05:50:34.022Z,0.73
2018-11-29T05:51:44.075Z,0.67
2018-11-29T05:52:54.231Z,0.66
2018-11-29T05:54:04.322Z,0.66
2018-11-29T05:55:14.377Z,0.67
2018-11-29T05:56:24.467Z,0.66
2018-11-29T05:57:34.525Z,0.71
2018-11-29T05:58:44.634Z,0.64
2018-11-29T05:59:54.695Z,0.68
2018-11-29T06:01:04.748Z,0.64
2018-11-29T06:02:14.798Z,0.7
2018-11-29T06:03:24.846Z,0.68
2018-11-29T06:04:34.953Z,0.76
2018-11-29T06:05:45.006Z,0.71
2018-11-29T06:06:55.060Z,0.78
2018-11-29T06:08:05.110Z,0.73
2018-11-29T06:09:15.163Z,0.66
2018-11-29T06:10:25.321Z,0.74
2018-11-29T06:11:35.371Z,0.7
2018-11-29T06:12:45.422Z,0.73
2018-11-29T06:13:55.495Z,0.73
2018-11-29T06:15:05.549Z,0.67
2018-11-29T06:16:15.406Z,0.59
2018-11-29T06:17:25.456Z,0.56
2018-11-29T06:18:35.503Z,0.47
2018-11-29T06:19:45.559Z,0.48
2018-11-29T06:20:55.614Z,0.44
2018-11-29T06:22:05.719Z,0.47
2018-11-29T06:23:15.779Z,0.45
2018-11-29T06:24:25.831Z,0.45
2018-11-29T06:25:35.886Z,0.47
2018-11-29T06:26:45.946Z,0.45
2018-11-29T06:27:56.158Z,0.51
2018-11-29T06:29:06.211Z,0.48
2018-11-29T06:30:16.271Z,0.49
2018-11-29T06:31:26.379Z,0.47
2018-11-29T06:32:36.565Z,0.49
2018-11-29T06:33:46.792Z,0.63
2018-11-29T06:34:56.976Z,0.61
2018-11-29T06:36:07.164Z,0.64
2018-11-29T06:37:17.342Z,0.76
2018-11-29T06:38:27.528Z,0.82
2018-11-29T06:39:37.808Z,0.91
2018-11-29T06:40:47.985Z,0.99
2018-11-29T06:41:58.163Z,0.96
2018-11-29T06:43:08.074Z,0.92
2018-11-29T06:44:18.251Z,0.95
2018-11-29T06:45:28.529Z,0.96
2018-11-29T06:46:38.489Z,0.91
2018-11-29T06:47:48.668Z,0.92
2018-11-29T06:48:58.915Z,1
2018-11-29T06:50:09.095Z,0.95
2018-11-29T06:51:19.381Z,0.99
2018-11-29T06:52:29.565Z,0.99
2018-11-29T06:53:39.752Z,0.96
2018-11-29T06:54:49.931Z,0.91
2018-11-29T06:56:00.108Z,1
2018-11-29T06:57:10.336Z,0.99
2018-11-29T06:58:20.526Z,0.92
2018-11-29T06:59:30.723Z,0.94
2018-11-29T07:00:40.902Z,0.99
2018-11-29T07:01:51.078Z,0.95
2018-11-29T07:03:01.401Z,1
2018-11-29T07:04:11.579Z,0.95
2018-11-29T07:05:21.756Z,1
2018-11-29T07:06:31.943Z,0.99
2018-11-29T07:07:42.135Z,0.99
2018-11-29T07:08:52.414Z,1
2018-11-29T07:10:02.591Z,0.99
2018-11-29T07:11:12.811Z,0.95
2018-11-29T07:12:23.003Z,1
2018-11-29T07:13:33.186Z,1
2018-11-29T07:14:43.510Z,1.03
2018-11-29T07:15:53.723Z,0.96
2018-11-29T07:17:03.969Z,1.02
2018-11-29T07:18:14.152Z,1.07
2018-11-29T07:19:24.325Z,1.03
2018-11-29T07:20:34.569Z,1.02
2018-11-29T07:21:44.752Z,0.96
2018-11-29T07:22:54.926Z,1.07
2018-11-29T07:24:05.110Z,1.04
2018-11-29T07:25:15.294Z,1.04
2018-11-29T07:26:25.574Z,1.09
2018-11-29T07:27:35.747Z,1
2018-11-29T07:28:45.929Z,1.02
2018-11-29T07:29:56.111Z,1.03
2018-11-29T07:31:06.307Z,1.1
2018-11-29T07:32:16.550Z,1.06
2018-11-29T07:33:26.727Z,1.07
2018-11-29T07:34:36.921Z,1.09
2018-11-29T07:35:47.107Z,1.04
2018-11-29T07:36:57.288Z,1.04
2018-11-29T07:38:07.613Z,1.04
2018-11-29T07:39:17.526Z,1.09
2018-11-29T07:40:27.700Z,1.13
2018-11-29T07:41:37.880Z,1.14
2018-11-29T07:42:48.110Z,1.16
2018-11-29T07:43:58.360Z,1.21
2018-11-29T07:45:08.645Z,1.14
2018-11-29T07:46:19.815Z,1.16
2018-11-29T07:47:29.989Z,1.16
2018-11-29T07:48:40.167Z,1.22
2018-11-29T07:49:50.451Z,1.12
2018-11-29T07:51:00.629Z,1.25
2018-11-29T07:52:10.802Z,1.24
2018-11-29T07:53:21.231Z,1.18
2018-11-29T07:54:31.417Z,1.21
2018-11-29T07:55:41.701Z,1.22
2018-11-29T07:56:51.875Z,1.25
2018-11-29T07:58:02.059Z,1.24
2018-11-29T07:59:12.237Z,1.22
2018-11-29T08:00:22.438Z,1.27
2018-11-29T08:01:32.678Z,1.24
2018-11-29T08:02:42.863Z,1.27
2018-11-29T08:03:53.044Z,1.25
2018-11-29T08:05:02.950Z,1.24
2018-11-29T08:06:13.132Z,1.25
2018-11-29T08:07:23.364Z,1.25
2018-11-29T08:08:33.543Z,1.32
2018-11-29T08:09:43.718Z,1.39
2018-11-29T08:10:53.902Z,1.31
2018-11-29T08:12:04.083Z,1.32
2018-11-29T08:13:14.410Z,1.28
2018-11-29T08:14:24.588Z,1.3
2018-11-29T08:15:34.765Z,1.39
2018-11-29T08:16:44.946Z,1.39
2018-11-29T08:17:55.129Z,1.45
2018-11-29T08:19:05.458Z,1.42
2018-11-29T08:20:15.636Z,1.49
2018-11-29T08:21:25.815Z,1.48
2018-11-29T08:22:35.998Z,1.52
2018-11-29T08:23:46.177Z,1.5
2018-11-29T08:24:56.411Z,1.57
2018-11-29T08:26:06.592Z,1.49
2018-11-29T08:27:16.770Z,1.57
2018-11-29T08:28:26.951Z,1.58
2018-11-29T08:29:40.048Z,1.58
2018-11-29T08:30:50.278Z,1.56
2018-11-29T08:32:00.461Z,1.52
2018-11-29T08:33:10.645Z,1.49
2018-11-29T08:34:20.822Z,1.46
2018-11-29T08:35:31.000Z,1.5
2018-11-29T08:36:41.280Z,1.45
2018-11-29T08:37:51.461Z,1.4
2018-11-29T08:39:01.637Z,1.31
2018-11-29T08:40:11.580Z,1.36
2018-11-29T08:41:21.770Z,1.43
2018-11-29T08:42:32.002Z,1.43
2018-11-29T08:43:42.182Z,1.5
2018-11-29T08:44:52.363Z,1.56
2018-11-29T08:46:02.543Z,1.57
2018-11-29T08:47:12.743Z,1.57
2018-11-29T08:48:23.001Z,1.56
2018-11-29T08:49:33.177Z,1.6
2018-11-29T08:50:43.354Z,1.67
2018-11-29T08:51:53.532Z,1.67
2018-11-29T08:53:03.715Z,1.67
2018-11-29T08:54:13.992Z,1.63
2018-11-29T08:55:24.179Z,1.63
2018-11-29T08:56:34.357Z,1.74
2018-11-29T08:57:44.539Z,1.76
2018-11-29T08:58:54.719Z,1.78
2018-11-29T09:00:04.974Z,1.84
2018-11-29T09:01:15.158Z,1.81
2018-11-29T09:02:25.338Z,1.82
2018-11-29T09:03:35.518Z,1.84
2018-11-29T09:04:45.706Z,1.84
2018-11-29T09:05:56.435Z,1.89
2018-11-29T09:07:06.740Z,1.92
2018-11-29T09:08:16.922Z,1.89
2018-11-29T09:09:27.100Z,1.85
2018-11-29T09:10:37.293Z,1.92
2018-11-29T09:11:47.920Z,1.93
2018-11-29T09:12:58.108Z,1.86
2018-11-29T09:14:08.296Z,1.88
2018-11-29T09:15:18.486Z,1.84
2018-11-29T09:16:28.666Z,1.85
2018-11-29T09:17:38.997Z,1.86
2018-11-29T09:18:49.183Z,1.84
2018-11-29T09:19:59.366Z,1.88
2018-11-29T09:21:09.553Z,1.85
2018-11-29T09:22:20.173Z,1.86
2018-11-29T09:23:30.454Z,1.85
2018-11-29T09:24:40.633Z,1.88
2018-11-29T09:25:50.812Z,1.93
2018-11-29T09:27:00.994Z,2.01
2018-11-29T09:28:11.173Z,1.95
2018-11-29T09:29:21.458Z,1.86
2018-11-29T09:30:31.640Z,1.93
2018-11-29T09:31:41.830Z,1.95
2018-11-29T09:32:52.019Z,1.95
2018-11-29T09:34:02.199Z,2.03
2018-11-29T09:35:12.532Z,2.01
2018-11-29T09:36:24.382Z,1.93
2018-11-29T09:37:34.572Z,2
2018-11-29T09:38:44.757Z,1.95
2018-11-29T09:39:54.939Z,2.03
2018-11-29T09:41:05.283Z,2
2018-11-29T09:42:15.465Z,1.95
2018-11-29T09:43:25.660Z,2.01
2018-11-29T09:44:35.848Z,2.1
2018-11-29T09:45:46.025Z,2.14
2018-11-29T09:46:56.302Z,2.05
2018-11-29T09:48:06.484Z,2.07
2018-11-29T09:49:16.668Z,2.16
2018-11-29T09:50:26.920Z,2.23
2018-11-29T09:51:37.107Z,2.19
2018-11-29T09:52:47.443Z,2.28
2018-11-29T09:53:57.630Z,2.3
2018-11-29T09:55:07.810Z,2.34
2018-11-29T09:56:17.992Z,2.32
2018-11-29T09:57:28.179Z,2.36
2018-11-29T09:58:38.221Z,2.33
2018-11-29T09:59:48.408Z,2.34
2018-11-29T10:00:58.588Z,2.28
2018-11-29T10:02:08.771Z,2.21
2018-11-29T10:03:18.991Z,2.19
2018-11-29T10:04:29.280Z,2.15
2018-11-29T10:05:39.463Z,2.19
2018-11-29T10:06:49.691Z,2.19
2018-11-29T10:07:59.892Z,2.19
2018-11-29T10:09:17.028Z,2.18
2018-11-29T10:10:27.365Z,2.33
2018-11-29T10:11:37.546Z,2.39
2018-11-29T10:12:47.735Z,2.46
2018-11-29T10:13:57.922Z,2.52
2018-11-29T10:15:08.111Z,2.5
2018-11-29T10:16:18.295Z,2.54
2018-11-29T10:17:28.476Z,2.58
2018-11-29T10:18:38.655Z,2.57
2018-11-29T10:19:48.834Z,2.55
2018-11-29T10:20:59.015Z,2.62
2018-11-29T10:22:09.088Z,2.64
2018-11-29T10:23:19.055Z,2.61
2018-11-29T10:24:29.239Z,2.68
2018-11-29T10:25:39.420Z,2.65
2018-11-29T10:26:49.605Z,2.64
2018-11-29T10:27:59.796Z,2.65
2018-11-29T10:29:09.979Z,2.62
2018-11-29T10:30:20.158Z,2.68
2018-11-29T10:31:30.343Z,2.61
2018-11-29T10:32:40.528Z,2.7
2018-11-29T10:33:50.770Z,2.69
2018-11-29T10:35:00.946Z,2.61
2018-11-29T10:36:11.136Z,2.57
2018-11-29T10:37:21.321Z,2.59
2018-11-29T10:38:31.505Z,2.55
2018-11-29T10:39:42.897Z,2.58
2018-11-29T10:40:53.125Z,2.58
2018-11-29T10:42:03.308Z,2.52
2018-11-29T10:43:13.497Z,2.59
2018-11-29T10:44:23.680Z,2.52
2018-11-29T10:45:33.862Z,2.57
2018-11-29T10:46:44.047Z,2.61
2018-11-29T10:47:57.167Z,2.61
2018-11-29T10:49:07.359Z,2.59
2018-11-29T10:50:17.282Z,2.59
2018-11-29T10:51:28.112Z,2.61
2018-11-29T10:52:38.295Z,2.58
2018-11-29T10:53:48.482Z,2.58
2018-11-29T10:54:58.663Z,2.59
2018-11-29T10:56:08.848Z,2.58
2018-11-29T10:57:19.176Z,2.51
2018-11-29T10:58:29.412Z,2.47
2018-11-29T10:59:39.606Z,2.5
2018-11-29T11:00:49.787Z,2.51
2018-11-29T11:01:59.970Z,2.51
2018-11-29T11:03:10.165Z,2.47
2018-11-29T11:04:20.351Z,2.52
2018-11-29T11:05:30.540Z,2.5
2018-11-29T11:06:40.722Z,2.52
2018-11-29T11:07:50.904Z,2.52
2018-11-29T11:09:01.191Z,2.47
2018-11-29T11:10:11.371Z,2.51
2018-11-29T11:11:21.554Z,2.51
2018-11-29T11:12:31.737Z,2.51
2018-11-29T11:13:41.926Z,2.54
2018-11-29T11:14:52.160Z,2.52
2018-11-29T11:16:02.341Z,2.52
2018-11-29T11:17:12.523Z,2.46
2018-11-29T11:18:22.709Z,2.47
2018-11-29T11:19:32.906Z,2.47
2018-11-29T11:20:43.100Z,2.51
2018-11-29T11:21:53.287Z,2.51
2018-11-29T11:23:03.468Z,2.46
2018-11-29T11:24:13.654Z,2.46
2018-11-29T11:25:23.834Z,2.41
2018-11-29T11:26:34.020Z,2.46
2018-11-29T11:27:44.204Z,2.5
2018-11-29T11:28:54.381Z,2.46
2018-11-29T11:30:04.564Z,2.54
2018-11-29T11:31:14.751Z,2.64
2018-11-29T11:32:24.940Z,2.57
2018-11-29T11:33:35.126Z,2.51
2018-11-29T11:34:45.042Z,2.62
2018-11-29T11:35:55.278Z,2.62
2018-11-29T11:37:05.458Z,2.64
2018-11-29T11:38:15.214Z,2.69
2018-11-29T11:39:25.400Z,2.68
2018-11-29T11:40:35.578Z,2.68
2018-11-29T11:41:45.498Z,2.64
2018-11-29T11:42:55.684Z,2.68
2018-11-29T11:44:10.591Z,2.7
2018-11-29T11:45:20.778Z,2.73
2018-11-29T11:46:30.969Z,2.7
2018-11-29T11:47:41.160Z,2.79
2018-11-29T11:48:51.354Z,2.76
2018-11-29T11:50:01.636Z,2.75
2018-11-29T11:51:16.128Z,2.76
2018-11-29T11:52:26.319Z,2.73
2018-11-29T11:53:36.499Z,2.72
2018-11-29T11:54:46.680Z,2.76
2018-11-29T11:55:58.683Z,2.76
2018-11-29T11:57:08.865Z,2.76
2018-11-29T11:58:19.049Z,2.79
2018-11-29T11:59:29.238Z,2.73
2018-11-29T12:00:39.423Z,2.73
2018-11-29T12:01:49.611Z,2.72
2018-11-29T12:02:59.790Z,2.72
2018-11-29T12:04:10.034Z,2.79
2018-11-29T12:05:20.220Z,2.75
2018-11-29T12:06:30.403Z,2.77
2018-11-29T12:07:40.606Z,2.88
2018-11-29T12:08:50.787Z,2.87
2018-11-29T12:10:00.976Z,2.9
2018-11-29T12:11:11.156Z,2.91
2018-11-29T12:12:21.338Z,2.88
2018-11-29T12:13:31.519Z,2.94
2018-11-29T12:14:41.703Z,2.98
2018-11-29T12:15:51.885Z,2.98
2018-11-29T12:17:02.064Z,2.97
2018-11-29T12:18:12.245Z,2.94
2018-11-29T12:19:22.434Z,2.94
2018-11-29T12:20:32.627Z,3.01
2018-11-29T12:21:42.812Z,3.05
2018-11-29T12:22:53.005Z,3.03
2018-11-29T12:24:03.197Z,2.97
2018-11-29T12:25:13.373Z,2.98
2018-11-29T12:26:23.291Z,3.06
2018-11-29T12:27:33.476Z,3.09
2018-11-29T12:28:43.658Z,3.08
2018-11-29T12:29:53.845Z,3.15
2018-11-29T12:31:04.132Z,3.09
2018-11-29T12:32:14.310Z,3.09
2018-11-29T12:33:24.493Z,3.06
2018-11-29T12:34:34.746Z,3.12
2018-11-29T12:35:45.014Z,3.11
2018-11-29T12:36:55.259Z,3.19
2018-11-29T12:38:05.452Z,3.08
2018-11-29T12:39:15.634Z,3.11
2018-11-29T12:40:25.875Z,3.13
2018-11-29T12:41:36.067Z,3
2018-11-29T12:42:46.253Z,3.03
2018-11-29T12:43:56.438Z,3.08
2018-11-29T12:45:06.621Z,3.03
2018-11-29T12:46:16.848Z,3.08
2018-11-29T12:47:27.036Z,3.05
2018-11-29T12:48:37.324Z,3.12
2018-11-29T12:49:47.505Z,3.03
2018-11-29T12:50:57.687Z,3.05
2018-11-29T12:52:07.876Z,3.03
2018-11-29T12:53:18.070Z,3
2018-11-29T12:54:28.253Z,2.9
2018-11-29T12:55:38.443Z,2.97
2018-11-29T12:56:48.624Z,3.01
2018-11-29T12:58:10.456Z,2.93
2018-11-29T12:59:20.697Z,2.87
2018-11-29T13:00:34.886Z,2.88
2018-11-29T13:01:45.066Z,2.88
2018-11-29T13:02:55.255Z,2.94
2018-11-29T13:04:05.446Z,2.9
2018-11-29T13:05:15.736Z,2.82
2018-11-29T13:06:25.931Z,2.9
2018-11-29T13:07:36.122Z,2.88
2018-11-29T13:08:48.806Z,2.94
2018-11-29T13:09:58.991Z,2.91
2018-11-29T13:11:13.364Z,2.94
2018-11-29T13:12:23.544Z,3.06
2018-11-29T13:13:33.730Z,2.97
2018-11-29T13:14:43.919Z,3.01
2018-11-29T13:15:54.146Z,3.15
2018-11-29T13:17:04.329Z,3.21
2018-11-29T13:18:14.515Z,3.19
2018-11-29T13:19:24.701Z,3.31
2018-11-29T13:20:37.384Z,3.33
2018-11-29T13:21:47.605Z,3.29
2018-11-29T13:22:57.857Z,3.22
2018-11-29T13:24:08.197Z,3.26
2018-11-29T13:25:18.387Z,3.33
2018-11-29T13:26:28.574Z,3.22
2018-11-29T13:27:38.754Z,3.34
2018-11-29T13:28:49.106Z,3.22
2018-11-29T13:29:59.300Z,3.22
2018-11-29T13:31:09.486Z,3.22
2018-11-29T13:32:19.669Z,3.3
2018-11-29T13:33:29.859Z,3.29
2018-11-29T13:34:40.860Z,3.12
2018-11-29T13:35:51.047Z,3.26
2018-11-29T13:37:01.322Z,3.11
2018-11-29T13:38:11.495Z,3.22
2018-11-29T13:39:21.693Z,3.22
2018-11-29T13:40:31.943Z,3.15
2018-11-29T13:41:42.145Z,3.13
2018-11-29T13:42:52.083Z,3.26
2018-11-29T13:44:02.373Z,3.15
2018-11-29T13:45:12.562Z,3.26
2018-11-29T13:46:22.851Z,3.24
2018-11-29T13:47:33.872Z,3.21
2018-11-29T13:48:44.187Z,3.15
2018-11-29T13:49:54.374Z,3.24
2018-11-29T13:51:04.626Z,3.13
2018-11-29T13:52:14.613Z,3.11
2018-11-29T13:53:24.801Z,3.16
2018-11-29T13:54:34.984Z,3.18
2018-11-29T13:55:45.507Z,3.19
2018-11-29T13:56:55.697Z,3.24
2018-11-29T13:58:05.994Z,3.24
2018-11-29T13:59:16.262Z,3.24
2018-11-29T14:00:26.460Z,3.21
2018-11-29T14:01:36.719Z,3.24
2018-11-29T14:02:49.646Z,3.3
2018-11-29T14:03:59.884Z,3.33
2018-11-29T14:05:10.117Z,3.24
2018-11-29T14:06:20.437Z,3.24
2018-11-29T14:07:30.617Z,3.31
2018-11-29T14:08:40.865Z,3.29
2018-11-29T14:09:51.130Z,3.21
2018-11-29T14:11:01.318Z,3.18
2018-11-29T14:12:11.594Z,3.29
2018-11-29T14:13:21.827Z,3.22
2018-11-29T14:14:32.027Z,3.3
2018-11-29T14:15:42.324Z,3.3
2018-11-29T14:16:52.857Z,3.24
2018-11-29T14:18:03.094Z,3.27
2018-11-29T14:19:13.288Z,3.29
2018-11-29T14:20:23.469Z,3.37
2018-11-29T14:21:33.831Z,3.34
2018-11-29T14:22:44.014Z,3.4
2018-11-29T14:23:53.934Z,3.46
2018-11-29T14:25:04.708Z,3.45
2018-11-29T14:26:14.891Z,3.46
2018-11-29T14:27:25.108Z,3.43
2018-11-29T14:28:35.290Z,3.48
2018-11-29T14:29:45.469Z,3.45
2018-11-29T14:30:55.650Z,3.43
2018-11-29T14:32:05.944Z,3.49
2018-11-29T14:33:16.825Z,3.46
2018-11-29T14:34:27.007Z,3.49
2018-11-29T14:35:37.198Z,3.55
2018-11-29T14:36:47.383Z,3.46
2018-11-29T14:37:57.608Z,3.55
2018-11-29T14:39:08.829Z,3.5
2018-11-29T14:40:19.011Z,3.55
2018-11-29T14:41:29.196Z,3.48
2018-11-29T14:42:39.374Z,3.59
2018-11-29T14:43:49.555Z,3.59
2018-11-29T14:44:59.838Z,3.59
2018-11-29T14:46:10.028Z,3.49
2018-11-29T14:47:19.940Z,3.55
2018-11-29T14:48:30.120Z,3.45
2018-11-29T14:49:40.302Z,3.46
2018-11-29T14:50:50.284Z,3.53
2018-11-29T14:52:00.465Z,3.48
2018-11-29T14:53:10.657Z,3.52
2018-11-29T14:54:20.845Z,3.52
2018-11-29T14:55:31.034Z,3.45
2018-11-29T14:56:41.382Z,3.46
2018-11-29T14:57:51.640Z,3.43
2018-11-29T14:59:01.825Z,3.45
2018-11-29T15:00:12.013Z,3.43
2018-11-29T15:01:22.196Z,3.45
2018-11-29T15:02:32.432Z,3.46
2018-11-29T15:03:42.611Z,3.48
2018-11-29T15:04:52.795Z,3.43
2018-11-29T15:06:02.975Z,3.48
2018-11-29T15:07:13.154Z,3.4
2018-11-29T15:08:23.493Z,3.33
2018-11-29T15:09:33.675Z,3.41
2018-11-29T15:10:43.856Z,3.4
2018-11-29T15:11:54.040Z,3.31
2018-11-29T15:13:04.219Z,3.37
2018-11-29T15:14:17.855Z,3.37
2018-11-29T15:15:28.196Z,3.3
2018-11-29T15:16:38.378Z,3.36
2018-11-29T15:17:48.558Z,3.33
2018-11-29T15:18:58.744Z,3.34
2018-11-29T15:20:09.073Z,3.36
2018-11-29T15:21:19.253Z,3.3
2018-11-29T15:22:29.447Z,3.24
2018-11-29T15:23:39.680Z,3.27
2018-11-29T15:24:49.863Z,3.19
2018-11-29T15:26:00.092Z,3.24
2018-11-29T15:27:10.277Z,3.22
2018-11-29T15:28:20.462Z,3.18
2018-11-29T15:29:30.645Z,3.13
2018-11-29T15:30:40.825Z,3.21
2018-11-29T15:31:51.115Z,3.15
2018-11-29T15:33:01.366Z,3.13
2018-11-29T15:34:11.620Z,3.18
2018-11-29T15:35:21.800Z,3.21
2018-11-29T15:36:32.024Z,3.19